Big Bear Station Historical Data
Daily Summary for February 26, 2017 Units:  English    Metric   Both
« Previous Day
Next Day »
Daily Weekly Monthly Yearly Custom
  High: Low: Average:
Temperature: 36.3 °F 24.3 °F 29.2 °F
Dew Point: 30.0 °F 10.0 °F 24.6 °F
Humidity: 96 % 49 % 84 %
Wind Speed: 8.9 mph 0.0 mph 2.8 mph
Wind Gust: -999.0 mph - -
Wind:- - WSW
Pressure: 29.96 in 29.89 in -
Precipitation: 0.10 in    
Historical Graphs
 
 
Tabular Data for February 26, 2017
Time Temperature Dew Point Pressure Wind Wind Speed Wind Gust Humidity Rainfall Rate (Hourly)
00:13 25.5 °F 15.4 °F 29.95 in SW 2.2 mph -999.0 mph 65 % 0 in
00:28 25.7 °F 12.2 °F 29.95 in West 2.2 mph -999.0 mph 56 % 0 in
00:43 25.9 °F 10.7 °F 29.95 in WSW 3.7 mph -999.0 mph 52 % 0 in
00:58 26.6 °F 10.0 °F 29.95 in NNW 1.7 mph -999.0 mph 49 % 0 in
01:13 26.8 °F 11.1 °F 29.94 in NNW 2.2 mph -999.0 mph 51 % 0 in
01:28 27.0 °F 11.3 °F 29.94 in WNW 2.2 mph -999.0 mph 51 % 0 in
01:44 27.3 °F 10.6 °F 29.93 in WNW 1.1 mph -999.0 mph 49 % 0 in
01:59 27.5 °F 13.4 °F 29.92 in South 1.1 mph -999.0 mph 55 % 0 in
02:14 28.8 °F 15.5 °F 29.92 in West 2.2 mph -999.0 mph 57 % 0 in
02:30 29.1 °F 16.2 °F 29.92 in South 1.7 mph -999.0 mph 58 % 0 in
02:45 29.5 °F 18.1 °F 29.90 in WNW 3.2 mph -999.0 mph 62 % 0 in
03:00 27.7 °F 20.5 °F 29.90 in West 1.7 mph -999.0 mph 74 % 0 in
03:15 27.3 °F 18.1 °F 29.90 in Calm   -999.0 mph 68 % 0 in
03:30 27.9 °F 20.7 °F 29.89 in NNE 5.8 mph -999.0 mph 74 % 0 in
03:46 25.7 °F 23.2 °F 29.89 in NW 3.7 mph -999.0 mph 90 % 0 in
04:01 25.2 °F 23.2 °F 29.90 in NW 5.3 mph -999.0 mph 92 % 0 in
04:16 24.8 °F 23.1 °F 29.90 in Calm   -999.0 mph 93 % 0 in
04:31 25.0 °F 23.0 °F 29.90 in WNW 3.2 mph -999.0 mph 92 % 0 in
04:47 25.0 °F 23.3 °F 29.92 in WNW 2.2 mph -999.0 mph 93 % 0 in
05:02 25.0 °F 23.3 °F 29.91 in Calm   -999.0 mph 93 % 0 in
05:18 25.0 °F 23.3 °F 29.91 in Calm   -999.0 mph 93 % 0 in
05:33 25.2 °F 23.7 °F 29.91 in NNW 2.2 mph -999.0 mph 94 % 0 in
05:48 25.2 °F 23.7 °F 29.91 in WNW 1.7 mph -999.0 mph 94 % 0 in
06:04 25.3 °F 23.8 °F 29.91 in WNW 3.7 mph -999.0 mph 94 % 0 in
06:19 25.5 °F 24.0 °F 29.92 in Calm   -999.0 mph 94 % 0 in
06:34 25.7 °F 24.2 °F 29.92 in Calm   -999.0 mph 94 % 0 in
06:49 26.1 °F 24.6 °F 29.92 in Calm   -999.0 mph 94 % 0 in
07:05 26.8 °F 25.0 °F 29.92 in West 2.2 mph -999.0 mph 93 % 0 in
07:20 27.5 °F 25.7 °F 29.93 in NW 3.2 mph -999.0 mph 93 % 0 in
07:35 28.4 °F 26.1 °F 29.93 in WNW 1.7 mph -999.0 mph 91 % 0 in
07:50 29.3 °F 26.7 °F 29.94 in West 1.7 mph -999.0 mph 90 % 0 in
08:06 29.1 °F 26.5 °F 29.93 in WNW 2.7 mph -999.0 mph 90 % 0 in
08:21 28.9 °F 26.1 °F 29.93 in NNW 5.3 mph -999.0 mph 89 % 0 in
08:37 29.3 °F 26.5 °F 29.94 in NW 3.7 mph -999.0 mph 89 % 0 in
08:52 29.5 °F 26.9 °F 29.94 in WNW 3.2 mph -999.0 mph 90 % 0 in
09:08 30.0 °F 27.2 °F 29.94 in West 2.7 mph -999.0 mph 89 % 0 in
09:23 30.7 °F 27.6 °F 29.93 in NW 4.2 mph -999.0 mph 88 % 0 in
09:38 32.7 °F 28.7 °F 29.94 in NNW 7.3 mph -999.0 mph 85 % 0 in
09:53 34.9 °F 30.0 °F 29.94 in SSE 2.7 mph -999.0 mph 82 % 0 in
10:09 35.2 °F 30.0 °F 29.94 in NNW 2.7 mph -999.0 mph 81 % 0 in
10:24 35.1 °F 29.6 °F 29.94 in WNW 2.2 mph -999.0 mph 80 % 0 in
10:39 34.9 °F 29.7 °F 29.95 in WNW 2.7 mph -999.0 mph 81 % 0 in
10:55 33.3 °F 28.4 °F 29.95 in NNW 1.1 mph -999.0 mph 82 % 0 in
11:10 32.2 °F 27.9 °F 29.96 in East 3.2 mph -999.0 mph 84 % 0 in
11:26 32.4 °F 27.8 °F 29.95 in West 7.8 mph -999.0 mph 83 % 0 in
11:41 33.4 °F 28.2 °F 29.95 in NNE 3.7 mph -999.0 mph 81 % 0 in
11:56 34.3 °F 28.5 °F 29.94 in NW 5.8 mph -999.0 mph 79 % 0 in
12:12 36.1 °F 29.9 °F 29.94 in North 1.7 mph -999.0 mph 78 % 0 in
12:27 34.5 °F 28.7 °F 29.94 in Calm   -999.0 mph 79 % 0 in
12:42 36.3 °F 28.5 °F 29.93 in NW 2.7 mph -999.0 mph 73 % 0 in
12:57 34.2 °F 29.3 °F 29.93 in WSW 2.2 mph -999.0 mph 82 % 0 in
13:13 33.4 °F 27.9 °F 29.93 in South 1.7 mph -999.0 mph 80 % 0 in
13:28 33.6 °F 27.5 °F 29.92 in WSW 3.7 mph -999.0 mph 78 % 0 in
13:43 35.2 °F 28.4 °F 29.92 in South 2.2 mph -999.0 mph 76 % 0 in
13:59 35.6 °F 29.1 °F 29.91 in ESE 2.7 mph -999.0 mph 77 % 0 in
14:14 35.1 °F 28.3 °F 29.91 in NW 1.7 mph -999.0 mph 76 % 0 in
14:29 34.3 °F 27.2 °F 29.91 in South 3.7 mph -999.0 mph 75 % 0 in
14:44 33.3 °F 28.1 °F 29.91 in WNW 5.3 mph -999.0 mph 81 % 0 in
15:00 33.8 °F 28.0 °F 29.91 in SSE 2.7 mph -999.0 mph 79 % 0 in
15:15 33.1 °F 27.9 °F 29.91 in West 1.7 mph -999.0 mph 81 % 0 in
15:30 33.4 °F 28.2 °F 29.91 in SW 2.7 mph -999.0 mph 81 % 0 in
15:45 32.5 °F 28.5 °F 29.91 in NW 1.7 mph -999.0 mph 85 % 0 in
16:00 32.0 °F 28.3 °F 29.91 in ENE 4.7 mph -999.0 mph 86 % 0 in
16:16 31.5 °F 28.1 °F 29.91 in NNW 3.7 mph -999.0 mph 87 % 0 in
16:31 30.6 °F 27.5 °F 29.92 in ESE 2.7 mph -999.0 mph 88 % 0 in
16:46 30.4 °F 27.8 °F 29.91 in NNE 8.9 mph -999.0 mph 90 % 0 in
17:02 30.2 °F 27.6 °F 29.91 in NNE 3.2 mph -999.0 mph 90 % 0 in
17:17 29.8 °F 27.8 °F 29.91 in NNW 2.2 mph -999.0 mph 92 % 0 in
17:32 29.5 °F 27.7 °F 29.90 in SSW 2.7 mph -999.0 mph 93 % 0 in
17:48 29.5 °F 28.0 °F 29.90 in WSW 3.2 mph -999.0 mph 94 % 0 in
18:03 29.1 °F 27.6 °F 29.91 in NNW 4.7 mph -999.0 mph 94 % 0 in
18:18 29.1 °F 27.8 °F 29.90 in WNW 4.2 mph -999.0 mph 95 % 0 in
18:34 29.3 °F 28.3 °F 29.91 in SSW 2.7 mph -999.0 mph 96 % 0 in
18:49 29.1 °F 28.1 °F 29.90 in NNW 3.2 mph -999.0 mph 96 % 0 in
19:04 29.1 °F 28.1 °F 29.90 in WNW 1.1 mph -999.0 mph 96 % 0 in
19:20 29.1 °F 28.1 °F 29.91 in East 1.7 mph -999.0 mph 96 % 0 in
19:35 29.3 °F 28.3 °F 29.90 in NNE 3.2 mph -999.0 mph 96 % 0 in
19:50 28.9 °F 27.9 °F 29.91 in NW 2.7 mph -999.0 mph 96 % 0 in
20:05 28.8 °F 27.5 °F 29.91 in North 1.7 mph -999.0 mph 95 % 0 in
20:21 28.4 °F 27.2 °F 29.91 in NNW 2.2 mph -999.0 mph 95 % 0 in
20:36 28.0 °F 26.5 °F 29.91 in NNE 3.7 mph -999.0 mph 94 % 0 in
20:51 27.5 °F 26.0 °F 29.92 in North 6.8 mph -999.0 mph 94 % 0 in
21:06 26.6 °F 24.9 °F 29.92 in West 1.1 mph -999.0 mph 93 % 0 in
21:21 26.2 °F 24.5 °F 29.92 in NNW 6.3 mph -999.0 mph 93 % 0 in
21:37 25.7 °F 24.2 °F 29.92 in NW 3.7 mph -999.0 mph 94 % 0 in
21:52 25.3 °F 24.1 °F 29.92 in NW 4.2 mph -999.0 mph 95 % 0 in
22:08 25.2 °F 24.0 °F 29.92 in NW 3.2 mph -999.0 mph 95 % 0 in
22:23 24.8 °F 22.8 °F 29.93 in WNW 2.7 mph -999.0 mph 92 % 0 in
22:38 24.4 °F 22.4 °F 29.92 in NW 2.2 mph -999.0 mph 92 % 0 in
22:53 24.3 °F 21.5 °F 29.92 in Calm   -999.0 mph 89 % 0 in
23:09 24.3 °F 21.0 °F 29.92 in ENE 2.7 mph -999.0 mph 87 % 0 in
23:24 24.3 °F 21.0 °F 29.91 in SSW 2.7 mph -999.0 mph 87 % 0 in
23:39 24.8 °F 20.1 °F 29.92 in ESE 1.7 mph -999.0 mph 82 % 0 in
23:55 26.4 °F 18.3 °F 29.91 in NW 6.8 mph -999.0 mph 71 % 0 in
Big Bear CA Weather
Compliments of Weather Underground - 1.5 mb